sensor_id;sensor_type;location;lat;lon;timestamp;temperature;humidity
42949;DHT22;28587;46.794;23.594;2022-11-20T00:01:40;22.20;55.10
42949;DHT22;28587;46.794;23.594;2022-11-20T00:06:41;22.20;55.60
42949;DHT22;28587;46.794;23.594;2022-11-20T00:11:42;22.20;55.10
42949;DHT22;28587;46.794;23.594;2022-11-20T00:16:42;22.20;55.10
42949;DHT22;28587;46.794;23.594;2022-11-20T00:21:43;22.20;55.00
42949;DHT22;28587;46.794;23.594;2022-11-20T00:26:53;22.20;55.10
42949;DHT22;28587;46.794;23.594;2022-11-20T00:31:54;22.20;55.10
42949;DHT22;28587;46.794;23.594;2022-11-20T00:36:56;22.20;55.10
42949;DHT22;28587;46.794;23.594;2022-11-20T00:41:57;22.20;55.20
42949;DHT22;28587;46.794;23.594;2022-11-20T00:46:57;22.20;55.20
42949;DHT22;28587;46.794;23.594;2022-11-20T00:51:58;22.20;55.20
42949;DHT22;28587;46.794;23.594;2022-11-20T00:56:59;22.20;55.30
42949;DHT22;28587;46.794;23.594;2022-11-20T01:02:02;22.20;55.30
42949;DHT22;28587;46.794;23.594;2022-11-20T01:07:03;22.20;55.10
42949;DHT22;28587;46.794;23.594;2022-11-20T01:12:04;22.10;55.20
42949;DHT22;28587;46.794;23.594;2022-11-20T01:17:05;22.10;55.20
42949;DHT22;28587;46.794;23.594;2022-11-20T01:22:06;22.10;55.00
42949;DHT22;28587;46.794;23.594;2022-11-20T01:27:07;22.10;54.90
42949;DHT22;28587;46.794;23.594;2022-11-20T01:32:08;22.20;54.90
42949;DHT22;28587;46.794;23.594;2022-11-20T01:37:09;22.20;54.90
42949;DHT22;28587;46.794;23.594;2022-11-20T01:42:10;22.10;54.80
42949;DHT22;28587;46.794;23.594;2022-11-20T01:47:37;22.10;54.80
42949;DHT22;28587;46.794;23.594;2022-11-20T01:52:46;22.20;54.90
42949;DHT22;28587;46.794;23.594;2022-11-20T01:57:51;22.10;54.80
42949;DHT22;28587;46.794;23.594;2022-11-20T02:03:07;22.10;54.70
42949;DHT22;28587;46.794;23.594;2022-11-20T02:08:09;22.10;54.70
42949;DHT22;28587;46.794;23.594;2022-11-20T02:13:10;22.10;54.70
42949;DHT22;28587;46.794;23.594;2022-11-20T02:18:30;22.10;54.70
42949;DHT22;28587;46.794;23.594;2022-11-20T02:29:00;22.10;54.70
42949;DHT22;28587;46.794;23.594;2022-11-20T02:34:01;22.10;54.80
42949;DHT22;28587;46.794;23.594;2022-11-20T02:39:03;22.10;54.70
42949;DHT22;28587;46.794;23.594;2022-11-20T02:44:04;22.10;54.70
42949;DHT22;28587;46.794;23.594;2022-11-20T02:49:05;22.10;54.70
42949;DHT22;28587;46.794;23.594;2022-11-20T02:54:06;22.10;54.70
42949;DHT22;28587;46.794;23.594;2022-11-20T02:59:07;22.10;54.80
42949;DHT22;28587;46.794;23.594;2022-11-20T03:04:08;22.10;54.80
42949;DHT22;28587;46.794;23.594;2022-11-20T03:09:09;22.10;54.80
42949;DHT22;28587;46.794;23.594;2022-11-20T03:14:13;22.10;54.80
42949;DHT22;28587;46.794;23.594;2022-11-20T03:19:14;22.10;54.80
42949;DHT22;28587;46.794;23.594;2022-11-20T03:24:16;22.10;54.80
42949;DHT22;28587;46.794;23.594;2022-11-20T03:29:17;22.10;54.80
42949;DHT22;28587;46.794;23.594;2022-11-20T03:34:18;22.10;54.70
42949;DHT22;28587;46.794;23.594;2022-11-20T03:39:19;22.10;54.80
42949;DHT22;28587;46.794;23.594;2022-11-20T03:44:21;22.10;54.80
42949;DHT22;28587;46.794;23.594;2022-11-20T03:49:22;22.10;54.80
42949;DHT22;28587;46.794;23.594;2022-11-20T03:54:23;22.10;54.80
42949;DHT22;28587;46.794;23.594;2022-11-20T03:59:24;22.10;54.80
42949;DHT22;28587;46.794;23.594;2022-11-20T04:04:25;22.10;54.70
42949;DHT22;28587;46.794;23.594;2022-11-20T04:09:25;22.10;54.50
42949;DHT22;28587;46.794;23.594;2022-11-20T04:14:26;22.10;54.70
42949;DHT22;28587;46.794;23.594;2022-11-20T04:19:27;22.10;54.80
42949;DHT22;28587;46.794;23.594;2022-11-20T04:24:28;22.10;54.80
42949;DHT22;28587;46.794;23.594;2022-11-20T04:29:29;22.10;54.80
42949;DHT22;28587;46.794;23.594;2022-11-20T04:34:30;22.10;54.80
42949;DHT22;28587;46.794;23.594;2022-11-20T04:39:31;22.10;54.70
42949;DHT22;28587;46.794;23.594;2022-11-20T04:44:32;22.10;54.80
42949;DHT22;28587;46.794;23.594;2022-11-20T04:49:33;22.10;54.80
42949;DHT22;28587;46.794;23.594;2022-11-20T04:54:34;22.10;54.80
42949;DHT22;28587;46.794;23.594;2022-11-20T04:59:35;22.00;54.90
42949;DHT22;28587;46.794;23.594;2022-11-20T05:04:36;22.10;54.80
42949;DHT22;28587;46.794;23.594;2022-11-20T05:09:37;22.10;54.90
42949;DHT22;28587;46.794;23.594;2022-11-20T05:14:38;22.00;54.90
42949;DHT22;28587;46.794;23.594;2022-11-20T05:19:39;22.10;55.10
42949;DHT22;28587;46.794;23.594;2022-11-20T05:24:40;22.00;55.10
42949;DHT22;28587;46.794;23.594;2022-11-20T05:29:41;22.10;55.20
42949;DHT22;28587;46.794;23.594;2022-11-20T05:34:42;22.10;55.20
42949;DHT22;28587;46.794;23.594;2022-11-20T05:39:43;22.10;55.20
42949;DHT22;28587;46.794;23.594;2022-11-20T05:44:44;22.00;55.20
42949;DHT22;28587;46.794;23.594;2022-11-20T05:49:44;22.00;55.20
42949;DHT22;28587;46.794;23.594;2022-11-20T05:54:45;22.00;54.90
42949;DHT22;28587;46.794;23.594;2022-11-20T05:59:46;22.00;55.00
42949;DHT22;28587;46.794;23.594;2022-11-20T06:04:47;22.00;55.00
42949;DHT22;28587;46.794;23.594;2022-11-20T06:09:49;22.00;55.20
42949;DHT22;28587;46.794;23.594;2022-11-20T06:14:49;22.00;55.10
42949;DHT22;28587;46.794;23.594;2022-11-20T06:20:14;22.00;55.50
42949;DHT22;28587;46.794;23.594;2022-11-20T06:25:15;22.10;55.60
42949;DHT22;28587;46.794;23.594;2022-11-20T06:30:16;22.10;55.70
42949;DHT22;28587;46.794;23.594;2022-11-20T06:35:20;22.10;56.10
42949;DHT22;28587;46.794;23.594;2022-11-20T06:40:20;22.40;56.00
42949;DHT22;28587;46.794;23.594;2022-11-20T06:45:22;22.70;55.40
42949;DHT22;28587;46.794;23.594;2022-11-20T06:50:23;23.00;54.80
42949;DHT22;28587;46.794;23.594;2022-11-20T06:55:24;23.20;53.60
42949;DHT22;28587;46.794;23.594;2022-11-20T07:00:25;23.40;53.40
42949;DHT22;28587;46.794;23.594;2022-11-20T07:05:26;23.40;53.60
42949;DHT22;28587;46.794;23.594;2022-11-20T07:10:27;23.40;53.80
42949;DHT22;28587;46.794;23.594;2022-11-20T07:15:29;23.30;54.20
42949;DHT22;28587;46.794;23.594;2022-11-20T07:20:30;23.20;54.90
42949;DHT22;28587;46.794;23.594;2022-11-20T07:25:30;23.20;54.90
42949;DHT22;28587;46.794;23.594;2022-11-20T07:30:31;23.10;55.20
42949;DHT22;28587;46.794;23.594;2022-11-20T07:35:32;23.10;55.40
42949;DHT22;28587;46.794;23.594;2022-11-20T07:40:33;23.00;55.50
42949;DHT22;28587;46.794;23.594;2022-11-20T07:45:34;23.00;55.40
42949;DHT22;28587;46.794;23.594;2022-11-20T07:50:35;22.90;55.40
42949;DHT22;28587;46.794;23.594;2022-11-20T07:55:36;22.90;55.80
42949;DHT22;28587;46.794;23.594;2022-11-20T08:00:37;22.80;56.40
42949;DHT22;28587;46.794;23.594;2022-11-20T08:05:38;22.80;56.40
42949;DHT22;28587;46.794;23.594;2022-11-20T08:10:39;22.80;56.50
42949;DHT22;28587;46.794;23.594;2022-11-20T08:15:40;22.70;56.10
42949;DHT22;28587;46.794;23.594;2022-11-20T08:20:41;22.80;56.40
42949;DHT22;28587;46.794;23.594;2022-11-20T08:25:42;22.70;56.30
42949;DHT22;28587;46.794;23.594;2022-11-20T08:30:43;22.70;56.20
42949;DHT22;28587;46.794;23.594;2022-11-20T08:35:44;22.70;56.10
42949;DHT22;28587;46.794;23.594;2022-11-20T08:40:45;22.70;55.90
42949;DHT22;28587;46.794;23.594;2022-11-20T08:46:06;22.70;55.90
42949;DHT22;28587;46.794;23.594;2022-11-20T08:51:07;22.70;55.90
42949;DHT22;28587;46.794;23.594;2022-11-20T08:56:07;22.70;55.80
42949;DHT22;28587;46.794;23.594;2022-11-20T09:01:10;22.70;55.90
42949;DHT22;28587;46.794;23.594;2022-11-20T09:06:12;22.70;55.80
42949;DHT22;28587;46.794;23.594;2022-11-20T09:11:13;22.70;55.90
42949;DHT22;28587;46.794;23.594;2022-11-20T09:16:14;22.70;56.00
42949;DHT22;28587;46.794;23.594;2022-11-20T09:21:15;22.60;56.40
42949;DHT22;28587;46.794;23.594;2022-11-20T09:26:16;22.60;56.10
42949;DHT22;28587;46.794;23.594;2022-11-20T09:31:23;22.60;56.20
42949;DHT22;28587;46.794;23.594;2022-11-20T09:36:24;22.70;56.30
42949;DHT22;28587;46.794;23.594;2022-11-20T09:47:02;22.70;56.30
42949;DHT22;28587;46.794;23.594;2022-11-20T09:57:42;22.70;56.40
42949;DHT22;28587;46.794;23.594;2022-11-20T10:02:52;22.60;57.10
42949;DHT22;28587;46.794;23.594;2022-11-20T10:08:25;22.60;57.30
42949;DHT22;28587;46.794;23.594;2022-11-20T10:18:51;22.60;56.80
42949;DHT22;28587;46.794;23.594;2022-11-20T10:29:32;22.70;57.30
42949;DHT22;28587;46.794;23.594;2022-11-20T10:40:01;22.70;56.90
42949;DHT22;28587;46.794;23.594;2022-11-20T11:01:20;22.70;57.30
42949;DHT22;28587;46.794;23.594;2022-11-20T11:06:51;22.70;57.20
42949;DHT22;28587;46.794;23.594;2022-11-20T11:12:06;22.70;57.20
42949;DHT22;28587;46.794;23.594;2022-11-20T11:22:29;22.60;56.00
42949;DHT22;28587;46.794;23.594;2022-11-20T11:27:32;22.60;56.00
42949;DHT22;28587;46.794;23.594;2022-11-20T11:32:32;22.60;56.00
42949;DHT22;28587;46.794;23.594;2022-11-20T11:37:38;22.50;56.00
42949;DHT22;28587;46.794;23.594;2022-11-20T11:42:44;22.50;56.00
42949;DHT22;28587;46.794;23.594;2022-11-20T11:47:47;22.50;55.90
42949;DHT22;28587;46.794;23.594;2022-11-20T12:03:44;22.50;55.70
42949;DHT22;28587;46.794;23.594;2022-11-20T12:09:05;22.50;55.90
42949;DHT22;28587;46.794;23.594;2022-11-20T12:14:19;22.50;56.20
42949;DHT22;28587;46.794;23.594;2022-11-20T12:19:24;22.40;56.40
42949;DHT22;28587;46.794;23.594;2022-11-20T12:29:56;22.40;56.60
42949;DHT22;28587;46.794;23.594;2022-11-20T12:41:18;22.40;56.60
42949;DHT22;28587;46.794;23.594;2022-11-20T12:46:55;22.40;56.70
42949;DHT22;28587;46.794;23.594;2022-11-20T13:03:00;22.40;56.50
42949;DHT22;28587;46.794;23.594;2022-11-20T13:08:24;22.40;56.50
42949;DHT22;28587;46.794;23.594;2022-11-20T13:18:51;22.50;67.40
42949;DHT22;28587;46.794;23.594;2022-11-20T13:23:52;22.50;70.70
42949;DHT22;28587;46.794;23.594;2022-11-20T13:29:09;22.60;73.90
42949;DHT22;28587;46.794;23.594;2022-11-20T13:34:23;22.60;73.60
42949;DHT22;28587;46.794;23.594;2022-11-20T13:39:33;22.50;65.10
42949;DHT22;28587;46.794;23.594;2022-11-20T13:44:38;22.50;63.20
42949;DHT22;28587;46.794;23.594;2022-11-20T13:49:40;22.50;63.20
42949;DHT22;28587;46.794;23.594;2022-11-20T14:00:19;22.50;62.70
42949;DHT22;28587;46.794;23.594;2022-11-20T14:05:22;22.50;62.70
42949;DHT22;28587;46.794;23.594;2022-11-20T14:10:25;22.50;64.20
42949;DHT22;28587;46.794;23.594;2022-11-20T14:15:34;22.50;63.80
42949;DHT22;28587;46.794;23.594;2022-11-20T14:20:37;22.50;63.30
42949;DHT22;28587;46.794;23.594;2022-11-20T14:25:42;22.50;63.00
42949;DHT22;28587;46.794;23.594;2022-11-20T14:30:46;22.50;62.70
42949;DHT22;28587;46.794;23.594;2022-11-20T14:35:50;22.50;62.20
42949;DHT22;28587;46.794;23.594;2022-11-20T14:40:51;22.50;62.20
42949;DHT22;28587;46.794;23.594;2022-11-20T14:45:59;22.50;61.20
42949;DHT22;28587;46.794;23.594;2022-11-20T14:51:00;22.50;61.40
42949;DHT22;28587;46.794;23.594;2022-11-20T14:56:02;22.50;61.20
42949;DHT22;28587;46.794;23.594;2022-11-20T15:01:05;22.60;61.30
42949;DHT22;28587;46.794;23.594;2022-11-20T15:06:10;22.50;60.90
42949;DHT22;28587;46.794;23.594;2022-11-20T15:11:19;22.50;60.80
42949;DHT22;28587;46.794;23.594;2022-11-20T15:16:22;22.50;60.50
42949;DHT22;28587;46.794;23.594;2022-11-20T15:21:24;22.50;60.50
42949;DHT22;28587;46.794;23.594;2022-11-20T15:26:27;22.50;60.00
42949;DHT22;28587;46.794;23.594;2022-11-20T15:31:28;22.50;60.00
42949;DHT22;28587;46.794;23.594;2022-11-20T15:36:29;22.50;59.00
42949;DHT22;28587;46.794;23.594;2022-11-20T15:41:30;22.50;58.10
42949;DHT22;28587;46.794;23.594;2022-11-20T15:46:33;22.60;57.10
42949;DHT22;28587;46.794;23.594;2022-11-20T15:51:42;22.60;57.00
42949;DHT22;28587;46.794;23.594;2022-11-20T15:56:43;22.50;56.90
42949;DHT22;28587;46.794;23.594;2022-11-20T16:01:44;22.60;56.90
42949;DHT22;28587;46.794;23.594;2022-11-20T16:06:45;22.50;57.10
42949;DHT22;28587;46.794;23.594;2022-11-20T16:11:46;22.60;57.30
42949;DHT22;28587;46.794;23.594;2022-11-20T16:16:47;22.60;57.50
42949;DHT22;28587;46.794;23.594;2022-11-20T16:21:48;22.60;58.90
42949;DHT22;28587;46.794;23.594;2022-11-20T16:26:49;22.60;57.70
42949;DHT22;28587;46.794;23.594;2022-11-20T16:31:50;22.60;58.00
42949;DHT22;28587;46.794;23.594;2022-11-20T16:36:54;22.50;59.40
42949;DHT22;28587;46.794;23.594;2022-11-20T16:41:54;22.50;59.30
42949;DHT22;28587;46.794;23.594;2022-11-20T16:46:55;22.50;58.50
42949;DHT22;28587;46.794;23.594;2022-11-20T16:51:58;22.50;58.50
42949;DHT22;28587;46.794;23.594;2022-11-20T16:56:59;22.50;58.40
42949;DHT22;28587;46.794;23.594;2022-11-20T17:01:59;22.50;58.60
42949;DHT22;28587;46.794;23.594;2022-11-20T17:07:00;22.50;58.90
42949;DHT22;28587;46.794;23.594;2022-11-20T17:12:02;22.50;59.20
42949;DHT22;28587;46.794;23.594;2022-11-20T17:17:03;22.50;59.20
42949;DHT22;28587;46.794;23.594;2022-11-20T17:22:04;22.50;58.70
42949;DHT22;28587;46.794;23.594;2022-11-20T17:27:05;22.50;59.00
42949;DHT22;28587;46.794;23.594;2022-11-20T17:32:06;22.50;58.50
42949;DHT22;28587;46.794;23.594;2022-11-20T17:37:07;22.50;58.60
42949;DHT22;28587;46.794;23.594;2022-11-20T17:42:07;22.50;58.80
42949;DHT22;28587;46.794;23.594;2022-11-20T17:47:26;22.50;58.40
42949;DHT22;28587;46.794;23.594;2022-11-20T17:52:27;22.50;58.40
42949;DHT22;28587;46.794;23.594;2022-11-20T17:57:28;22.50;58.20
42949;DHT22;28587;46.794;23.594;2022-11-20T18:02:49;22.50;58.20
42949;DHT22;28587;46.794;23.594;2022-11-20T18:07:54;22.50;58.30
42949;DHT22;28587;46.794;23.594;2022-11-20T18:12:56;22.50;58.30
42949;DHT22;28587;46.794;23.594;2022-11-20T18:17:57;22.50;58.10
42949;DHT22;28587;46.794;23.594;2022-11-20T18:22:58;22.50;58.00
42949;DHT22;28587;46.794;23.594;2022-11-20T18:27:59;22.50;58.20
42949;DHT22;28587;46.794;23.594;2022-11-20T18:33:00;22.50;58.40
42949;DHT22;28587;46.794;23.594;2022-11-20T18:38:01;22.50;58.70
42949;DHT22;28587;46.794;23.594;2022-11-20T18:43:02;22.50;59.50
42949;DHT22;28587;46.794;23.594;2022-11-20T18:48:21;22.50;59.80
42949;DHT22;28587;46.794;23.594;2022-11-20T18:53:22;22.50;59.70
42949;DHT22;28587;46.794;23.594;2022-11-20T18:58:23;22.50;61.10
42949;DHT22;28587;46.794;23.594;2022-11-20T19:03:26;22.50;60.60
42949;DHT22;28587;46.794;23.594;2022-11-20T19:08:27;22.50;60.80
42949;DHT22;28587;46.794;23.594;2022-11-20T19:13:31;22.50;66.00
42949;DHT22;28587;46.794;23.594;2022-11-20T19:18:36;22.60;72.00
42949;DHT22;28587;46.794;23.594;2022-11-20T19:23:37;22.60;66.70
42949;DHT22;28587;46.794;23.594;2022-11-20T19:28:38;22.50;65.00
42949;DHT22;28587;46.794;23.594;2022-11-20T19:33:40;22.50;64.40
42949;DHT22;28587;46.794;23.594;2022-11-20T19:38:43;22.60;64.50
42949;DHT22;28587;46.794;23.594;2022-11-20T19:43:43;22.80;64.30
42949;DHT22;28587;46.794;23.594;2022-11-20T19:48:45;23.10;64.20
42949;DHT22;28587;46.794;23.594;2022-11-20T19:53:46;23.20;63.10
42949;DHT22;28587;46.794;23.594;2022-11-20T19:58:47;23.30;62.60
42949;DHT22;28587;46.794;23.594;2022-11-20T20:03:48;23.30;62.10
42949;DHT22;28587;46.794;23.594;2022-11-20T20:08:58;23.30;61.70
42949;DHT22;28587;46.794;23.594;2022-11-20T20:14:04;23.30;61.50
42949;DHT22;28587;46.794;23.594;2022-11-20T20:19:05;23.60;61.20
42949;DHT22;28587;46.794;23.594;2022-11-20T20:24:06;23.80;60.40
42949;DHT22;28587;46.794;23.594;2022-11-20T20:29:07;24.00;60.00
42949;DHT22;28587;46.794;23.594;2022-11-20T20:34:08;24.20;59.50
42949;DHT22;28587;46.794;23.594;2022-11-20T20:39:10;24.40;59.10
42949;DHT22;28587;46.794;23.594;2022-11-20T20:44:11;24.60;58.60
42949;DHT22;28587;46.794;23.594;2022-11-20T20:49:32;24.70;58.20
42949;DHT22;28587;46.794;23.594;2022-11-20T20:54:33;24.80;58.10
42949;DHT22;28587;46.794;23.594;2022-11-20T20:59:34;24.80;58.10
42949;DHT22;28587;46.794;23.594;2022-11-20T21:04:35;24.60;56.70
42949;DHT22;28587;46.794;23.594;2022-11-20T21:09:36;24.50;57.30
42949;DHT22;28587;46.794;23.594;2022-11-20T21:14:37;24.40;57.60
42949;DHT22;28587;46.794;23.594;2022-11-20T21:19:38;24.30;57.90
42949;DHT22;28587;46.794;23.594;2022-11-20T21:24:39;24.20;58.10
42949;DHT22;28587;46.794;23.594;2022-11-20T21:29:40;24.10;58.40
42949;DHT22;28587;46.794;23.594;2022-11-20T21:34:41;24.00;58.40
42949;DHT22;28587;46.794;23.594;2022-11-20T21:39:42;23.90;58.00
42949;DHT22;28587;46.794;23.594;2022-11-20T21:44:50;23.80;57.90
42949;DHT22;28587;46.794;23.594;2022-11-20T21:49:51;23.70;58.20
42949;DHT22;28587;46.794;23.594;2022-11-20T21:54:52;23.70;58.50
42949;DHT22;28587;46.794;23.594;2022-11-20T21:59:53;23.60;58.70
42949;DHT22;28587;46.794;23.594;2022-11-20T22:04:54;23.50;58.90
42949;DHT22;28587;46.794;23.594;2022-11-20T22:09:55;23.50;59.10
42949;DHT22;28587;46.794;23.594;2022-11-20T22:14:56;23.40;59.10
42949;DHT22;28587;46.794;23.594;2022-11-20T22:19:57;23.40;59.30
42949;DHT22;28587;46.794;23.594;2022-11-20T22:24:58;23.30;59.30
42949;DHT22;28587;46.794;23.594;2022-11-20T22:29:59;23.30;59.40
42949;DHT22;28587;46.794;23.594;2022-11-20T22:35:00;23.30;59.50
42949;DHT22;28587;46.794;23.594;2022-11-20T22:40:02;23.30;59.60
42949;DHT22;28587;46.794;23.594;2022-11-20T22:45:03;23.20;59.50
42949;DHT22;28587;46.794;23.594;2022-11-20T22:50:05;23.20;59.60
42949;DHT22;28587;46.794;23.594;2022-11-20T22:55:06;23.20;59.60
42949;DHT22;28587;46.794;23.594;2022-11-20T23:00:07;23.20;59.70
42949;DHT22;28587;46.794;23.594;2022-11-20T23:05:09;23.20;59.70
42949;DHT22;28587;46.794;23.594;2022-11-20T23:10:10;23.20;59.80
42949;DHT22;28587;46.794;23.594;2022-11-20T23:15:11;23.10;59.70
42949;DHT22;28587;46.794;23.594;2022-11-20T23:20:12;23.10;59.70
42949;DHT22;28587;46.794;23.594;2022-11-20T23:25:13;23.10;59.70
42949;DHT22;28587;46.794;23.594;2022-11-20T23:30:14;23.10;59.80
42949;DHT22;28587;46.794;23.594;2022-11-20T23:35:15;23.10;59.90
42949;DHT22;28587;46.794;23.594;2022-11-20T23:40:16;23.10;59.90
42949;DHT22;28587;46.794;23.594;2022-11-20T23:45:17;23.10;60.00
42949;DHT22;28587;46.794;23.594;2022-11-20T23:50:18;23.00;60.10
42949;DHT22;28587;46.794;23.594;2022-11-20T23:55:19;23.00;60.00
